createdAt,value
2019-05-16T00:00:59.871Z,2.10
2019-05-16T00:03:28.753Z,2.00
2019-05-16T00:05:58.416Z,2.20
2019-05-16T00:08:28.599Z,2.30
2019-05-16T00:10:58.289Z,2.13
2019-05-16T00:13:28.018Z,2.20
2019-05-16T00:15:58.725Z,2.10
2019-05-16T00:18:28.403Z,2.10
2019-05-16T00:20:58.464Z,2.20
2019-05-16T00:23:29.034Z,1.97
2019-05-16T00:25:58.708Z,2.43
2019-05-16T00:28:28.582Z,2.23
2019-05-16T00:30:59.166Z,1.97
2019-05-16T00:33:29.518Z,2.00
2019-05-16T00:36:03.555Z,2.10
2019-05-16T00:38:29.086Z,2.07
2019-05-16T00:40:59.034Z,2.20
2019-05-16T00:43:28.891Z,1.90
2019-05-16T00:45:58.967Z,2.20
2019-05-16T00:48:28.850Z,2.10
2019-05-16T00:50:58.534Z,2.67
2019-05-16T00:53:28.948Z,2.20
2019-05-16T00:55:58.578Z,2.23
2019-05-16T00:58:28.597Z,2.30
2019-05-16T01:00:59.301Z,2.17
2019-05-16T01:03:29.093Z,2.23
2019-05-16T01:05:58.287Z,2.30
2019-05-16T01:08:28.260Z,2.20
2019-05-16T01:10:58.658Z,2.40
2019-05-16T01:13:27.878Z,2.50
2019-05-16T01:15:57.965Z,2.17
2019-05-16T01:18:28.719Z,2.23
2019-05-16T01:20:58.867Z,2.13
2019-05-16T01:23:28.274Z,2.30
2019-05-16T01:25:58.908Z,2.23
2019-05-16T01:28:28.379Z,1.90
2019-05-16T01:30:58.143Z,2.17
2019-05-16T01:33:28.097Z,2.30
2019-05-16T01:35:58.533Z,2.20
2019-05-16T01:38:28.486Z,2.17
2019-05-16T01:40:58.265Z,2.27
2019-05-16T01:43:28.392Z,2.10
2019-05-16T01:45:57.866Z,2.30
2019-05-16T01:48:29.261Z,2.30
2019-05-16T01:50:58.393Z,2.40
2019-05-16T01:53:27.815Z,2.50
2019-05-16T01:55:58.032Z,2.30
2019-05-16T01:58:29.055Z,2.23
2019-05-16T02:01:11.631Z,2.37
2019-05-16T02:03:28.798Z,2.30
2019-05-16T02:05:58.561Z,2.07
2019-05-16T02:08:28.654Z,2.33
2019-05-16T02:10:58.497Z,2.53
2019-05-16T02:13:28.652Z,2.30
2019-05-16T02:15:59.347Z,2.40
2019-05-16T02:18:28.986Z,2.40
2019-05-16T02:21:01.394Z,2.10
2019-05-16T02:23:30.021Z,2.30
2019-05-16T02:25:59.064Z,2.30
2019-05-16T02:28:33.657Z,2.30
2019-05-16T02:31:01.378Z,2.20
2019-05-16T02:33:31.733Z,2.10
2019-05-16T02:36:01.795Z,2.20
2019-05-16T02:38:31.961Z,2.30
2019-05-16T02:41:03.182Z,1.90
2019-05-16T02:43:31.727Z,2.63
2019-05-16T02:46:01.360Z,2.37
2019-05-16T02:48:31.776Z,2.20
2019-05-16T02:51:02.015Z,2.10
2019-05-16T02:53:31.259Z,2.20
2019-05-16T02:56:01.403Z,2.27
2019-05-16T02:58:31.833Z,2.43
2019-05-16T03:01:02.306Z,2.03
2019-05-16T03:03:31.897Z,2.20
2019-05-16T03:06:01.783Z,2.67
2019-05-16T03:08:32.173Z,2.50
2019-05-16T03:11:02.659Z,2.13
2019-05-16T03:13:32.915Z,2.20
2019-05-16T03:16:04.432Z,2.37
2019-05-16T03:18:33.690Z,2.10
2019-05-16T03:21:04.203Z,2.03
2019-05-16T03:23:33.120Z,2.50
2019-05-16T03:26:02.182Z,2.30
2019-05-16T03:28:31.079Z,2.50
2019-05-16T03:31:05.070Z,2.10
2019-05-16T03:33:39.568Z,2.30
2019-05-16T03:36:04.710Z,2.10
2019-05-16T03:38:32.721Z,2.23
2019-05-16T03:41:01.719Z,2.40
2019-05-16T03:43:31.073Z,2.27
2019-05-16T03:46:02.450Z,2.40
2019-05-16T03:48:31.932Z,2.00
2019-05-16T03:51:01.119Z,2.30
2019-05-16T03:53:31.828Z,2.47
2019-05-16T03:56:01.808Z,2.37
2019-05-16T03:58:31.419Z,2.20
2019-05-16T04:01:02.425Z,2.43
2019-05-16T04:03:33.056Z,2.40
2019-05-16T04:06:01.831Z,2.37
2019-05-16T04:08:31.231Z,2.40
2019-05-16T04:11:01.329Z,2.03
2019-05-16T04:13:31.640Z,2.23
2019-05-16T04:16:01.719Z,2.17
2019-05-16T04:18:31.834Z,2.40
2019-05-16T04:21:01.450Z,2.30
2019-05-16T04:23:31.299Z,2.70
2019-05-16T04:26:01.070Z,2.10
2019-05-16T04:28:31.759Z,2.77
2019-05-16T04:31:02.509Z,2.77
2019-05-16T04:33:31.575Z,2.63
2019-05-16T04:36:01.470Z,2.27
2019-05-16T04:38:40.285Z,2.23
2019-05-16T04:41:01.674Z,2.50
2019-05-16T04:43:31.773Z,2.27
2019-05-16T04:46:01.572Z,2.70
2019-05-16T04:48:31.387Z,2.70
2019-05-16T04:51:01.343Z,3.77
2019-05-16T04:53:31.847Z,3.17
2019-05-16T04:56:01.740Z,3.50
2019-05-16T04:58:31.853Z,3.20
2019-05-16T05:01:01.681Z,3.30
2019-05-16T05:03:31.706Z,3.40
2019-05-16T05:06:01.507Z,3.17
2019-05-16T05:08:40.804Z,3.03
2019-05-16T05:11:01.614Z,3.17
2019-05-16T05:13:30.919Z,2.80
2019-05-16T05:16:01.344Z,2.80
2019-05-16T05:18:31.906Z,2.80
2019-05-16T05:21:01.233Z,2.93
2019-05-16T05:23:30.379Z,2.93
2019-05-16T05:26:00.252Z,3.20
2019-05-16T05:28:30.041Z,3.40
2019-05-16T05:30:59.766Z,2.80
2019-05-16T05:33:30.285Z,3.20
2019-05-16T05:36:01.171Z,3.47
2019-05-16T05:38:31.192Z,3.10
2019-05-16T05:41:00.537Z,3.00
2019-05-16T05:43:31.778Z,2.80
2019-05-16T05:46:02.217Z,4.23
2019-05-16T05:48:32.433Z,3.57
2019-05-16T05:51:02.022Z,3.40
2019-05-16T05:53:31.262Z,3.13
2019-05-16T05:56:00.731Z,2.90
2019-05-16T05:58:31.017Z,3.00
2019-05-16T06:01:00.778Z,3.27
2019-05-16T06:03:32.782Z,3.07
2019-05-16T06:06:01.189Z,2.97
2019-05-16T06:08:30.922Z,2.93
2019-05-16T06:11:00.872Z,2.90
2019-05-16T06:13:31.095Z,3.50
2019-05-16T06:16:00.443Z,2.97
2019-05-16T06:18:30.799Z,3.07
2019-05-16T06:21:00.612Z,3.27
2019-05-16T06:23:31.353Z,2.83
2019-05-16T06:26:00.710Z,3.00
2019-05-16T06:28:30.765Z,2.80
2019-05-16T06:31:01.921Z,3.03
2019-05-16T06:33:31.265Z,3.30
2019-05-16T06:36:00.416Z,3.10
2019-05-16T06:38:30.097Z,3.07
2019-05-16T06:41:00.402Z,2.83
2019-05-16T06:43:30.247Z,3.43
2019-05-16T06:46:00.554Z,2.80
2019-05-16T06:48:30.563Z,2.93
2019-05-16T06:51:02.884Z,3.10
2019-05-16T06:53:32.853Z,2.97
2019-05-16T06:56:02.091Z,2.90
2019-05-16T06:58:44.652Z,2.80
2019-05-16T07:01:03.508Z,2.27
2019-05-16T07:03:33.113Z,2.60
2019-05-16T07:06:02.934Z,2.70
2019-05-16T07:08:32.274Z,2.70
2019-05-16T07:11:01.379Z,3.07
2019-05-16T07:13:30.626Z,3.10
2019-05-16T07:16:01.394Z,2.67
2019-05-16T07:18:31.199Z,2.80
2019-05-16T07:21:00.533Z,2.87
2019-05-16T07:23:30.268Z,2.63
2019-05-16T07:26:00.765Z,2.93
2019-05-16T07:28:30.284Z,2.77
2019-05-16T07:31:02.552Z,2.70
2019-05-16T07:33:31.473Z,2.87
2019-05-16T07:36:01.972Z,3.00
2019-05-16T07:38:31.796Z,2.80
2019-05-16T07:41:00.809Z,2.87
2019-05-16T07:43:30.923Z,3.27
2019-05-16T07:46:01.627Z,5.17
2019-05-16T07:48:32.209Z,2.93
2019-05-16T07:51:02.991Z,2.90
2019-05-16T07:53:33.172Z,3.07
2019-05-16T07:56:03.060Z,3.00
2019-05-16T07:58:32.284Z,3.03
2019-05-16T08:01:07.582Z,2.70
2019-05-16T08:03:32.957Z,2.67
2019-05-16T08:06:02.443Z,3.23
2019-05-16T08:08:32.099Z,3.50
2019-05-16T08:11:01.770Z,3.10
2019-05-16T08:13:32.106Z,2.90
2019-05-16T08:16:01.544Z,4.50
2019-05-16T08:18:31.511Z,3.90
2019-05-16T08:21:01.588Z,3.00
2019-05-16T08:23:33.017Z,3.30
2019-05-16T08:26:02.382Z,3.20
2019-05-16T08:28:31.997Z,2.60
2019-05-16T08:31:01.495Z,3.23
2019-05-16T08:33:34.040Z,3.30
2019-05-16T08:36:08.082Z,3.10
2019-05-16T08:38:34.267Z,2.90
2019-05-16T08:41:11.668Z,2.80
2019-05-16T08:43:35.642Z,3.40
2019-05-16T08:46:05.407Z,2.93
2019-05-16T08:48:35.059Z,3.00
2019-05-16T08:51:05.074Z,3.23
2019-05-16T08:53:36.138Z,3.20
2019-05-16T08:56:06.687Z,3.00
2019-05-16T08:58:36.112Z,3.00
2019-05-16T09:01:05.867Z,3.20
2019-05-16T09:03:35.753Z,3.40
2019-05-16T09:06:05.450Z,3.00
2019-05-16T09:08:35.195Z,3.13
2019-05-16T09:11:26.528Z,3.17
2019-05-16T09:13:38.190Z,3.00
2019-05-16T09:16:07.912Z,3.23
2019-05-16T09:18:45.289Z,3.00
2019-05-16T09:21:10.197Z,3.30
2019-05-16T09:23:39.411Z,3.40
2019-05-16T09:26:08.979Z,3.00
2019-05-16T09:28:39.177Z,2.87
2019-05-16T09:31:08.558Z,3.10
2019-05-16T09:33:38.018Z,4.00
2019-05-16T09:36:08.154Z,3.53
2019-05-16T09:38:38.468Z,3.80
2019-05-16T09:41:08.206Z,3.30
2019-05-16T09:43:38.822Z,3.20
2019-05-16T09:46:09.451Z,3.10
2019-05-16T09:48:39.197Z,3.43
2019-05-16T09:51:10.455Z,3.30
2019-05-16T09:53:43.072Z,3.63
2019-05-16T09:56:12.462Z,3.50
2019-05-16T09:58:41.570Z,3.60
2019-05-16T10:01:10.913Z,3.57
2019-05-16T10:03:40.209Z,3.37
2019-05-16T10:06:11.067Z,3.07
2019-05-16T10:08:40.823Z,3.00
2019-05-16T10:11:10.638Z,3.20
2019-05-16T10:13:40.491Z,3.20
2019-05-16T10:16:10.002Z,3.00
2019-05-16T10:18:39.306Z,3.20
2019-05-16T10:21:08.894Z,2.80
2019-05-16T10:23:39.005Z,3.07
2019-05-16T10:26:09.877Z,3.10
2019-05-16T10:28:41.440Z,3.10
2019-05-16T10:31:11.011Z,3.13
2019-05-16T10:33:40.260Z,3.03
2019-05-16T10:36:09.518Z,2.60
2019-05-16T10:38:38.628Z,2.93
2019-05-16T10:41:07.951Z,3.13
2019-05-16T10:43:38.867Z,2.60
2019-05-16T10:46:08.033Z,2.83
2019-05-16T10:48:37.886Z,2.37
2019-05-16T10:51:07.806Z,2.80
2019-05-16T10:54:01.037Z,3.10
2019-05-16T10:56:09.105Z,3.07
2019-05-16T10:58:59.603Z,3.17
2019-05-16T11:01:24.365Z,3.20
2019-05-16T11:03:41.975Z,3.17
2019-05-16T11:06:24.726Z,3.00
2019-05-16T11:08:43.577Z,3.23
2019-05-16T11:11:12.772Z,3.13
2019-05-16T11:13:41.959Z,3.17
2019-05-16T11:16:12.638Z,3.43
2019-05-16T11:18:41.838Z,3.20
2019-05-16T11:21:14.102Z,3.50
2019-05-16T11:23:43.645Z,3.27
2019-05-16T11:26:12.790Z,3.50
2019-05-16T11:28:42.434Z,3.50
2019-05-16T11:31:11.876Z,3.07
2019-05-16T11:33:41.030Z,2.77
2019-05-16T11:36:12.983Z,3.03
2019-05-16T11:38:42.493Z,3.40
2019-05-16T11:41:11.739Z,3.23
2019-05-16T11:43:40.822Z,3.07
2019-05-16T11:46:10.175Z,2.80
2019-05-16T11:48:39.380Z,3.10
2019-05-16T11:51:08.739Z,2.63
2019-05-16T11:53:38.174Z,2.40
2019-05-16T11:56:08.697Z,3.00
2019-05-16T11:58:38.119Z,2.70
2019-05-16T12:01:07.816Z,2.70
2019-05-16T12:03:37.673Z,2.83
2019-05-16T12:06:10.822Z,2.53
2019-05-16T12:08:37.925Z,3.00
2019-05-16T12:11:08.657Z,2.43
2019-05-16T12:13:38.599Z,3.00
2019-05-16T12:16:07.960Z,2.63
2019-05-16T12:18:37.478Z,2.70
2019-05-16T12:21:08.200Z,3.00
2019-05-16T12:23:37.743Z,3.07
2019-05-16T12:26:07.802Z,2.57
2019-05-16T12:28:39.609Z,2.90
2019-05-16T12:31:09.149Z,3.20
2019-05-16T12:33:40.526Z,2.53
2019-05-16T12:36:10.247Z,3.20
2019-05-16T12:38:41.323Z,3.47
2019-05-16T12:41:12.500Z,3.23
2019-05-16T12:43:49.306Z,3.43
2019-05-16T12:46:13.124Z,3.13
2019-05-16T12:48:42.503Z,3.07
2019-05-16T12:51:13.508Z,3.20
2019-05-16T12:53:44.084Z,3.17
2019-05-16T12:56:13.784Z,2.87
2019-05-16T12:58:43.540Z,3.00
2019-05-16T13:01:16.378Z,2.77
2019-05-16T13:03:48.055Z,2.73
2019-05-16T13:06:19.606Z,3.37
2019-05-16T13:08:53.482Z,2.90
2019-05-16T13:11:22.185Z,3.10
2019-05-16T13:14:03.363Z,3.40
2019-05-16T13:16:22.067Z,2.87
2019-05-16T13:18:51.765Z,3.17
2019-05-16T13:21:22.890Z,2.80
2019-05-16T13:23:54.299Z,2.80
2019-05-16T13:26:23.425Z,3.20
2019-05-16T13:28:52.692Z,3.00
2019-05-16T13:31:22.398Z,3.13
2019-05-16T13:33:52.910Z,3.13
2019-05-16T13:36:22.709Z,3.03
2019-05-16T13:38:53.622Z,2.77
2019-05-16T13:41:22.906Z,3.17
2019-05-16T13:43:52.773Z,3.13
2019-05-16T13:46:22.822Z,3.37
2019-05-16T13:48:52.045Z,2.80
2019-05-16T13:51:22.230Z,2.87
2019-05-16T13:53:52.671Z,3.30
2019-05-16T13:56:22.834Z,3.13
2019-05-16T13:58:56.982Z,3.27
2019-05-16T14:01:27.768Z,2.83
2019-05-16T14:03:59.278Z,2.70
2019-05-16T14:06:29.248Z,2.90
2019-05-16T14:08:58.737Z,2.70
2019-05-16T14:11:29.574Z,2.80
2019-05-16T14:13:58.976Z,2.97
2019-05-16T14:16:29.968Z,2.70
2019-05-16T14:18:59.389Z,2.80
2019-05-16T14:21:29.080Z,2.90
2019-05-16T14:23:59.838Z,2.73
2019-05-16T14:26:29.584Z,2.83
2019-05-16T14:28:59.463Z,2.77
2019-05-16T14:31:31.090Z,3.00
2019-05-16T14:34:00.573Z,2.70
2019-05-16T14:36:30.178Z,2.97
2019-05-16T14:39:00.278Z,2.67
2019-05-16T14:41:30.162Z,3.10
2019-05-16T14:44:02.707Z,2.83
2019-05-16T14:46:34.024Z,3.10
2019-05-16T14:49:07.736Z,2.90
2019-05-16T14:51:38.828Z,3.00
2019-05-16T14:54:09.229Z,3.10
2019-05-16T14:56:38.865Z,3.13
2019-05-16T14:59:09.992Z,2.80
2019-05-16T15:01:41.780Z,2.73
2019-05-16T15:04:15.455Z,2.57
2019-05-16T15:06:47.229Z,3.00
2019-05-16T15:09:17.913Z,2.73
2019-05-16T15:11:51.503Z,3.13
2019-05-16T15:14:22.038Z,2.40
2019-05-16T15:16:52.961Z,2.87
2019-05-16T15:19:24.383Z,3.07
2019-05-16T15:21:56.766Z,2.60
2019-05-16T15:24:28.111Z,3.10
2019-05-16T15:27:01.605Z,2.90
2019-05-16T15:29:31.655Z,2.57
2019-05-16T15:32:00.852Z,3.00
2019-05-16T15:34:32.607Z,2.87
2019-05-16T15:37:02.822Z,3.00
2019-05-16T15:39:37.133Z,3.07
2019-05-16T15:42:08.161Z,3.00
2019-05-16T15:44:39.285Z,2.90
2019-05-16T15:47:09.511Z,3.23
2019-05-16T15:49:39.345Z,2.57
2019-05-16T15:52:09.673Z,2.93
2019-05-16T15:54:40.642Z,3.03
2019-05-16T15:57:20.299Z,2.43
2019-05-16T15:59:51.495Z,3.13
2019-05-16T16:02:22.304Z,3.37
2019-05-16T16:04:52.117Z,2.60
2019-05-16T16:07:23.038Z,3.40
2019-05-16T16:09:52.766Z,2.80
2019-05-16T16:12:22.696Z,2.87
2019-05-16T16:14:57.212Z,2.67
2019-05-16T16:17:30.694Z,2.57
2019-05-16T16:20:00.325Z,3.00
2019-05-16T16:22:29.629Z,3.13
2019-05-16T16:25:00.254Z,3.00
2019-05-16T16:27:36.031Z,2.70
2019-05-16T16:30:08.258Z,2.67
2019-05-16T16:32:38.527Z,2.77
2019-05-16T16:35:13.514Z,2.47
2019-05-16T16:37:46.911Z,2.63
2019-05-16T16:40:20.128Z,2.60
2019-05-16T16:42:51.593Z,2.90
2019-05-16T16:45:22.948Z,2.50
2019-05-16T16:48:00.030Z,2.60
2019-05-16T16:50:30.191Z,2.47
2019-05-16T16:53:04.059Z,2.10
2019-05-16T16:55:37.019Z,2.90
2019-05-16T16:58:10.142Z,2.33
2019-05-16T17:00:41.163Z,2.30
2019-05-16T17:03:12.192Z,2.27
2019-05-16T17:05:42.437Z,2.87
2019-05-16T17:08:13.377Z,2.30
2019-05-16T17:10:43.283Z,2.37
2019-05-16T17:13:19.165Z,2.77
2019-05-16T17:15:50.519Z,2.30
2019-05-16T17:18:20.567Z,2.10
2019-05-16T17:20:51.667Z,2.40
2019-05-16T17:23:23.273Z,1.90
2019-05-16T17:25:59.761Z,2.27
2019-05-16T17:28:37.298Z,1.93
2019-05-16T17:31:08.978Z,1.90
2019-05-16T17:33:39.658Z,2.40
2019-05-16T17:36:10.782Z,1.80
2019-05-16T17:38:41.673Z,2.40
2019-05-16T17:41:16.728Z,2.20
2019-05-16T17:43:47.008Z,2.03
2019-05-16T17:46:33.702Z,1.90
2019-05-16T17:48:51.116Z,2.00
2019-05-16T17:51:26.218Z,2.23
2019-05-16T17:53:58.070Z,2.00
2019-05-16T17:56:30.484Z,1.90
2019-05-16T17:59:01.873Z,1.93
2019-05-16T18:01:33.940Z,1.90
2019-05-16T18:04:10.510Z,2.20
2019-05-16T18:06:41.751Z,2.70
2019-05-16T18:09:11.801Z,2.10
2019-05-16T18:11:46.800Z,1.83
2019-05-16T18:14:18.037Z,2.13
2019-05-16T18:16:58.552Z,2.13
2019-05-16T18:19:22.932Z,2.00
2019-05-16T18:21:57.089Z,1.90
2019-05-16T18:24:28.157Z,2.10
2019-05-16T18:26:57.856Z,2.20
2019-05-16T18:29:32.908Z,1.60
2019-05-16T18:32:03.092Z,1.70
2019-05-16T18:34:37.584Z,2.20
2019-05-16T18:37:07.690Z,1.90
2019-05-16T18:39:38.422Z,2.20
2019-05-16T18:42:09.470Z,2.03
2019-05-16T18:44:40.460Z,2.00
2019-05-16T18:47:11.535Z,2.13
2019-05-16T18:49:47.152Z,2.03
2019-05-16T18:52:18.078Z,1.93
2019-05-16T18:54:49.000Z,2.10
2019-05-16T18:57:20.257Z,1.80
2019-05-16T18:59:49.670Z,1.77
2019-05-16T19:02:19.222Z,1.97
2019-05-16T19:04:50.106Z,2.40
2019-05-16T19:07:20.578Z,2.30
2019-05-16T19:09:52.254Z,2.23
2019-05-16T19:12:22.800Z,2.30
2019-05-16T19:14:52.442Z,2.33
2019-05-16T19:17:24.910Z,2.10
2019-05-16T19:19:57.013Z,1.90
2019-05-16T19:22:36.957Z,2.10
2019-05-16T19:25:09.275Z,2.20
2019-05-16T19:27:40.498Z,2.30
2019-05-16T19:30:12.447Z,2.40
2019-05-16T19:32:42.624Z,2.57
2019-05-16T19:35:13.564Z,2.50
2019-05-16T19:37:43.537Z,2.33
2019-05-16T19:40:17.187Z,2.40
2019-05-16T19:42:52.157Z,2.30
2019-05-16T19:45:27.887Z,2.40
2019-05-16T19:47:59.272Z,2.37
2019-05-16T19:50:31.280Z,2.70
2019-05-16T19:53:00.647Z,2.67
2019-05-16T19:55:30.093Z,2.77
2019-05-16T19:57:59.737Z,2.50
2019-05-16T20:00:31.144Z,2.63
2019-05-16T20:03:00.617Z,2.60
2019-05-16T20:05:30.041Z,3.10
2019-05-16T20:07:59.593Z,2.60
2019-05-16T20:10:31.999Z,2.80
2019-05-16T20:13:03.495Z,2.80
2019-05-16T20:15:36.390Z,2.93
2019-05-16T20:18:07.654Z,2.80
2019-05-16T20:20:42.624Z,3.33
2019-05-16T20:23:12.274Z,3.27
2019-05-16T20:25:41.717Z,3.20
2019-05-16T20:28:13.853Z,2.63
2019-05-16T20:30:43.340Z,3.27
2019-05-16T20:33:12.914Z,2.90
2019-05-16T20:35:44.203Z,3.43
2019-05-16T20:38:13.689Z,3.47
2019-05-16T20:40:43.124Z,3.70
2019-05-16T20:43:16.850Z,3.53
2019-05-16T20:45:47.720Z,3.70
2019-05-16T20:48:20.511Z,3.90
2019-05-16T20:50:50.658Z,3.60
2019-05-16T20:53:23.839Z,3.40
2019-05-16T20:55:57.089Z,3.90
2019-05-16T20:58:25.943Z,3.30
2019-05-16T21:01:01.338Z,3.10
2019-05-16T21:03:28.749Z,3.60
2019-05-16T21:05:58.691Z,3.80
2019-05-16T21:08:28.675Z,3.17
2019-05-16T21:10:59.310Z,2.83
2019-05-16T21:13:29.898Z,3.17
2019-05-16T21:16:00.840Z,3.40
2019-05-16T21:18:30.357Z,3.20
2019-05-16T21:21:00.019Z,3.63
2019-05-16T21:23:30.283Z,3.20
2019-05-16T21:26:00.882Z,3.17
2019-05-16T21:28:31.298Z,3.20
2019-05-16T21:31:01.139Z,3.33
2019-05-16T21:33:30.281Z,3.50
2019-05-16T21:35:59.472Z,3.07
2019-05-16T21:38:29.400Z,3.43
2019-05-16T21:40:58.603Z,3.37
2019-05-16T21:43:27.704Z,3.50
2019-05-16T21:45:57.348Z,3.50
2019-05-16T21:48:28.393Z,3.43
2019-05-16T21:50:58.891Z,3.20
2019-05-16T21:53:30.094Z,3.50
2019-05-16T21:55:59.865Z,3.60
2019-05-16T21:58:29.527Z,3.50
2019-05-16T22:00:59.978Z,3.27
2019-05-16T22:03:30.752Z,3.90
2019-05-16T22:06:02.902Z,3.97
2019-05-16T22:08:32.471Z,3.47
2019-05-16T22:11:03.926Z,3.50
2019-05-16T22:13:37.075Z,3.50
2019-05-16T22:16:08.081Z,3.93
2019-05-16T22:18:38.470Z,3.93
2019-05-16T22:21:07.849Z,3.77
2019-05-16T22:23:37.557Z,3.67
2019-05-16T22:26:07.663Z,3.30
2019-05-16T22:28:37.472Z,3.53
2019-05-16T22:31:07.746Z,3.70
2019-05-16T22:33:37.578Z,3.40
2019-05-16T22:36:07.595Z,3.63
2019-05-16T22:38:37.635Z,3.63
2019-05-16T22:41:10.763Z,3.77
2019-05-16T22:43:38.889Z,3.67
2019-05-16T22:46:10.007Z,3.73
2019-05-16T22:48:39.226Z,3.53
2019-05-16T22:51:08.439Z,3.47
2019-05-16T22:53:37.628Z,3.80
2019-05-16T22:56:07.495Z,3.50
2019-05-16T22:58:37.058Z,3.70
2019-05-16T23:01:06.942Z,3.70
2019-05-16T23:03:38.032Z,3.53
2019-05-16T23:06:07.799Z,3.80
2019-05-16T23:08:38.349Z,4.03
2019-05-16T23:11:07.653Z,3.70
2019-05-16T23:13:36.661Z,3.23
2019-05-16T23:16:06.814Z,3.77
2019-05-16T23:18:37.537Z,3.77
2019-05-16T23:21:06.664Z,3.30
2019-05-16T23:23:37.267Z,3.50
2019-05-16T23:26:06.607Z,3.20
2019-05-16T23:28:36.786Z,2.73
2019-05-16T23:31:07.687Z,3.50
2019-05-16T23:33:36.765Z,3.40
2019-05-16T23:36:07.286Z,3.57
2019-05-16T23:38:37.038Z,3.13
2019-05-16T23:41:06.723Z,3.60
2019-05-16T23:43:37.272Z,3.57
2019-05-16T23:46:07.190Z,3.57
2019-05-16T23:48:37.253Z,3.17
2019-05-16T23:51:07.789Z,3.40
2019-05-16T23:53:37.247Z,3.73
2019-05-16T23:56:07.465Z,3.67
2019-05-16T23:58:37.037Z,3.40
